createdAt,value
2023-03-15T00:01:27.316Z,7.65
2023-03-15T00:06:51.801Z,6.97
2023-03-15T00:12:14.249Z,5.95
2023-03-15T00:17:37.500Z,8.60
2023-03-15T00:23:08.156Z,11.38
2023-03-15T00:28:31.861Z,17.73
2023-03-15T00:33:55.252Z,11.05
2023-03-15T00:39:20.604Z,9.65
2023-03-15T00:44:43.425Z,9.85
2023-03-15T00:50:05.961Z,12.68
2023-03-15T00:55:30.193Z,11.80
2023-03-15T01:00:52.990Z,11.23
2023-03-15T01:06:16.850Z,7.05
2023-03-15T01:11:40.780Z,9.45
2023-03-15T01:17:03.032Z,8.68
2023-03-15T01:22:28.397Z,9.20
2023-03-15T01:27:57.634Z,7.10
2023-03-15T01:33:25.990Z,6.93
2023-03-15T01:38:53.921Z,6.30
2023-03-15T01:44:48.925Z,6.30
2023-03-15T01:50:15.164Z,7.10
2023-03-15T01:55:42.173Z,11.52
2023-03-15T02:01:14.519Z,11.38
2023-03-15T02:06:46.635Z,8.82
2023-03-15T02:12:15.938Z,6.57
2023-03-15T02:17:46.295Z,4.57
2023-03-15T02:23:16.207Z,6.35
2023-03-15T02:28:40.682Z,5.00
2023-03-15T02:34:09.472Z,3.70
2023-03-15T02:39:37.833Z,6.10
2023-03-15T02:45:09.013Z,2.60
2023-03-15T02:50:33.977Z,6.45
2023-03-15T02:56:03.559Z,7.32
2023-03-15T03:01:28.961Z,4.10
2023-03-15T03:06:52.669Z,12.00
2023-03-15T03:12:24.885Z,2.92
2023-03-15T03:17:51.302Z,4.18
2023-03-15T03:23:16.331Z,8.55
2023-03-15T03:28:42.238Z,4.07
2023-03-15T03:34:15.524Z,6.43
2023-03-15T03:39:38.466Z,3.55
2023-03-15T03:45:07.050Z,4.03
2023-03-15T03:50:42.148Z,6.25
2023-03-15T03:56:10.871Z,4.45
2023-03-15T04:01:39.906Z,5.57
2023-03-15T04:07:10.444Z,5.10
2023-03-15T04:12:41.945Z,4.72
2023-03-15T04:18:11.761Z,9.43
2023-03-15T04:23:38.662Z,8.15
2023-03-15T04:29:31.418Z,4.00
2023-03-15T04:35:22.679Z,6.75
2023-03-15T04:40:59.490Z,6.38
2023-03-15T04:46:43.530Z,3.55
2023-03-15T04:52:45.612Z,8.07
2023-03-15T04:58:40.268Z,4.50
2023-03-15T05:04:28.380Z,20.63
2023-03-15T05:10:12.115Z,4.00
2023-03-15T05:16:07.527Z,10.98
2023-03-15T05:21:54.732Z,5.43
2023-03-15T05:27:34.038Z,7.88
2023-03-15T05:33:25.439Z,3.22
2023-03-15T05:39:06.720Z,4.60
2023-03-15T05:45:02.596Z,5.25
2023-03-15T05:50:54.033Z,5.15
2023-03-15T05:56:34.566Z,10.05
2023-03-15T06:02:15.847Z,7.65
2023-03-15T06:07:55.724Z,8.65
2023-03-15T06:13:19.759Z,2.63
2023-03-15T06:18:43.380Z,5.60
2023-03-15T06:24:07.767Z,8.98
2023-03-15T06:29:31.302Z,7.63
2023-03-15T06:34:55.169Z,12.15
2023-03-15T06:40:20.021Z,3.15
2023-03-15T06:45:45.752Z,4.30
2023-03-15T06:51:09.304Z,6.03
2023-03-15T06:56:37.293Z,7.57
2023-03-15T07:02:00.372Z,5.05
2023-03-15T07:07:22.725Z,5.05
2023-03-15T07:12:47.422Z,8.73
2023-03-15T07:18:10.806Z,12.63
2023-03-15T07:23:34.034Z,15.20
2023-03-15T07:28:58.398Z,17.15
2023-03-15T07:34:21.760Z,5.82
2023-03-15T07:39:44.824Z,4.85
2023-03-15T07:45:09.390Z,12.15
2023-03-15T07:50:32.529Z,12.93
2023-03-15T07:55:55.366Z,20.05
2023-03-15T08:01:19.745Z,6.10
2023-03-15T08:06:42.579Z,11.13
2023-03-15T08:12:05.706Z,10.88
2023-03-15T08:17:28.972Z,11.93
2023-03-15T08:22:58.202Z,11.75
2023-03-15T08:28:24.258Z,4.93
2023-03-15T08:33:54.470Z,11.10
2023-03-15T08:39:24.059Z,7.45
2023-03-15T08:44:47.507Z,10.93
2023-03-15T08:50:15.194Z,8.15
2023-03-15T08:55:44.228Z,9.50
2023-03-15T09:06:37.249Z,13.10
2023-03-15T09:12:00.868Z,9.15
2023-03-15T09:17:24.456Z,12.85
2023-03-15T09:22:54.944Z,8.80
2023-03-15T09:28:20.664Z,7.65
2023-03-15T09:33:46.905Z,14.05
2023-03-15T09:39:17.026Z,6.45
2023-03-15T09:44:48.204Z,19.08
2023-03-15T09:50:18.097Z,8.75
2023-03-15T09:55:50.203Z,6.40
2023-03-15T10:01:14.581Z,8.60
2023-03-15T10:06:38.525Z,9.45
2023-03-15T10:12:11.673Z,17.70
2023-03-15T10:17:48.224Z,9.98
2023-03-15T10:23:14.096Z,10.75
2023-03-15T10:28:44.905Z,9.07
2023-03-15T10:34:09.879Z,9.00
2023-03-15T10:39:38.958Z,16.95
2023-03-15T10:45:15.685Z,18.48
2023-03-15T10:50:43.614Z,6.30
2023-03-15T10:56:17.265Z,10.43
2023-03-15T11:01:48.211Z,13.32
2023-03-15T11:07:13.515Z,15.83
2023-03-15T11:12:36.263Z,9.48
2023-03-15T11:18:07.953Z,7.43
2023-03-15T11:29:02.613Z,10.48
2023-03-15T11:34:42.469Z,9.52
2023-03-15T11:40:12.170Z,12.55
2023-03-15T11:45:41.583Z,18.00
2023-03-15T11:51:33.668Z,15.35
2023-03-15T11:57:03.502Z,14.90
2023-03-15T12:02:48.652Z,10.63
2023-03-15T12:08:20.161Z,12.60
2023-03-15T12:13:52.437Z,13.45
2023-03-15T12:19:23.009Z,10.82
2023-03-15T12:24:52.408Z,19.02
2023-03-15T12:30:20.545Z,12.50
2023-03-15T12:35:50.005Z,8.63
2023-03-15T12:47:01.165Z,13.93
2023-03-15T12:52:41.366Z,9.13
2023-03-15T12:58:04.729Z,8.77
2023-03-15T13:03:35.235Z,10.90
2023-03-15T13:09:06.798Z,10.55
2023-03-15T13:14:40.642Z,16.08
2023-03-15T13:20:15.273Z,12.73
2023-03-15T13:25:47.142Z,8.50
2023-03-15T13:31:20.912Z,13.70
2023-03-15T13:36:54.699Z,11.98
2023-03-15T13:42:24.894Z,6.95
2023-03-15T13:47:48.846Z,10.73
2023-03-15T13:53:19.893Z,21.10
2023-03-15T13:58:43.931Z,11.07
2023-03-15T14:04:15.264Z,8.20
2023-03-15T14:09:45.591Z,10.32
2023-03-15T14:15:15.434Z,7.03
2023-03-15T14:20:45.783Z,9.00
2023-03-15T14:26:14.932Z,11.02
2023-03-15T14:31:47.514Z,8.68
2023-03-15T14:37:30.081Z,8.13
2023-03-15T14:43:00.659Z,9.15
2023-03-15T14:48:30.489Z,8.35
2023-03-15T14:53:54.515Z,15.85
2023-03-15T14:59:24.652Z,17.90
2023-03-15T15:04:53.544Z,13.25
2023-03-15T15:10:23.444Z,29.25
2023-03-15T15:15:56.594Z,24.17
2023-03-15T15:21:22.738Z,17.40
2023-03-15T15:26:49.439Z,12.35
2023-03-15T15:32:19.231Z,8.18
2023-03-15T15:37:45.829Z,12.43
2023-03-15T15:43:13.929Z,14.70
2023-03-15T15:48:41.834Z,23.13
2023-03-15T15:54:13.590Z,15.68
2023-03-15T15:59:42.138Z,9.80
2023-03-15T16:05:12.582Z,37.47
2023-03-15T16:10:36.019Z,20.98
2023-03-15T16:16:04.249Z,24.25
2023-03-15T16:21:37.619Z,21.40
2023-03-15T16:27:07.724Z,16.67
2023-03-15T16:32:43.812Z,22.42
2023-03-15T16:38:16.422Z,18.17
2023-03-15T16:43:47.322Z,19.35
2023-03-15T16:49:12.704Z,13.48
2023-03-15T16:54:41.567Z,34.58
2023-03-15T17:00:12.759Z,25.70
2023-03-15T17:05:37.370Z,24.60
2023-03-15T17:11:07.653Z,17.30
2023-03-15T17:16:32.957Z,11.73
2023-03-15T17:22:03.655Z,19.63
2023-03-15T17:27:35.530Z,25.02
2023-03-15T17:32:58.746Z,20.00
2023-03-15T17:38:34.086Z,16.55
2023-03-15T17:44:05.082Z,10.75
2023-03-15T17:49:32.099Z,18.20
2023-03-15T17:54:58.354Z,28.33
2023-03-15T18:00:32.453Z,30.52
2023-03-15T18:05:56.213Z,26.50
2023-03-15T18:11:24.722Z,25.00
2023-03-15T18:16:49.593Z,13.98
2023-03-15T18:27:45.173Z,20.70
2023-03-15T18:33:11.589Z,34.15
2023-03-15T18:38:40.315Z,20.27
2023-03-15T18:44:10.181Z,18.00
2023-03-15T18:49:35.626Z,33.03
2023-03-15T18:55:04.319Z,24.95
2023-03-15T19:00:36.440Z,19.87
2023-03-15T19:06:07.748Z,21.33
2023-03-15T19:11:41.647Z,38.03
2023-03-15T19:17:05.739Z,31.85
2023-03-15T19:22:35.575Z,31.52
2023-03-15T19:28:04.589Z,21.92
2023-03-15T19:33:32.837Z,25.20
2023-03-15T19:38:57.552Z,23.58
2023-03-15T19:44:27.388Z,18.35
2023-03-15T19:49:58.213Z,18.83
2023-03-15T19:55:27.944Z,14.18
2023-03-15T20:00:57.267Z,21.80
2023-03-15T20:06:21.497Z,17.75
2023-03-15T20:11:52.165Z,15.70
2023-03-15T20:17:15.175Z,23.40
2023-03-15T20:22:45.023Z,18.00
2023-03-15T20:28:11.213Z,23.00
2023-03-15T20:33:40.377Z,27.48
2023-03-15T20:39:07.584Z,15.57
2023-03-15T20:44:37.268Z,14.85
2023-03-15T20:50:06.102Z,21.17
2023-03-15T20:55:29.270Z,22.25
2023-03-15T21:01:06.807Z,24.77
2023-03-15T21:06:29.653Z,31.45
2023-03-15T21:11:58.445Z,30.23
2023-03-15T21:17:22.751Z,28.85
2023-03-15T21:22:51.663Z,25.52
2023-03-15T21:28:15.910Z,33.45
2023-03-15T21:33:45.758Z,21.58
2023-03-15T21:39:09.738Z,26.38
2023-03-15T21:44:33.857Z,27.08
2023-03-15T21:50:03.322Z,37.38
2023-03-15T21:55:27.592Z,35.08
2023-03-15T22:00:59.770Z,33.08
2023-03-15T22:06:25.674Z,37.13
2023-03-15T22:11:51.415Z,31.88
2023-03-15T22:17:14.974Z,37.55
2023-03-15T22:22:41.755Z,38.33
2023-03-15T22:28:07.250Z,42.72
2023-03-15T22:33:36.196Z,34.35
2023-03-15T22:39:03.976Z,38.38
2023-03-15T22:44:30.405Z,31.00
2023-03-15T22:49:59.846Z,41.35
2023-03-15T22:55:26.015Z,39.42
2023-03-15T23:00:53.354Z,24.53
2023-03-15T23:06:16.719Z,14.10
2023-03-15T23:11:41.411Z,21.38
2023-03-15T23:17:08.459Z,18.95
2023-03-15T23:22:34.552Z,31.58
2023-03-15T23:28:05.013Z,32.53
2023-03-15T23:33:34.202Z,28.23
2023-03-15T23:38:56.877Z,36.47
2023-03-15T23:44:20.754Z,37.20
2023-03-15T23:49:44.145Z,42.42
2023-03-15T23:55:07.713Z,31.88
